createdAt,value
2023-09-08T00:00:18.838Z,87.80
2023-09-08T00:02:45.622Z,87.90
2023-09-08T00:05:12.408Z,88.10
2023-09-08T00:07:39.173Z,88.30
2023-09-08T00:10:06.499Z,88.30
2023-09-08T00:12:33.416Z,87.40
2023-09-08T00:15:00.400Z,88.00
2023-09-08T00:17:27.189Z,88.10
2023-09-08T00:19:54.001Z,88.40
2023-09-08T00:22:20.770Z,89.00
2023-09-08T00:24:47.684Z,88.80
2023-09-08T00:27:14.442Z,88.20
2023-09-08T00:29:41.223Z,87.70
2023-09-08T00:32:08.178Z,88.40
2023-09-08T00:34:34.938Z,88.60
2023-09-08T00:37:07.986Z,88.20
2023-09-08T00:39:38.954Z,87.60
2023-09-08T00:42:07.941Z,88.50
2023-09-08T00:44:35.390Z,88.40
2023-09-08T00:47:02.290Z,88.00
2023-09-08T00:49:29.757Z,87.20
2023-09-08T00:51:56.854Z,87.60
2023-09-08T00:54:23.926Z,87.80
2023-09-08T00:56:56.516Z,88.00
2023-09-08T00:59:23.631Z,88.90
2023-09-08T01:01:50.610Z,89.60
2023-09-08T01:04:17.524Z,89.70
2023-09-08T01:06:46.398Z,89.70
2023-09-08T01:09:14.316Z,90.10
2023-09-08T01:11:42.192Z,89.70
2023-09-08T01:14:12.631Z,89.40
2023-09-08T01:16:41.469Z,89.50
2023-09-08T01:19:13.777Z,89.50
2023-09-08T01:21:59.046Z,88.50
2023-09-08T01:24:31.609Z,89.00
2023-09-08T01:26:58.728Z,88.80
2023-09-08T01:29:27.441Z,88.80
2023-09-08T01:31:54.634Z,88.60
2023-09-08T01:34:21.577Z,88.60
2023-09-08T01:36:48.798Z,89.00
2023-09-08T01:39:15.636Z,88.60
2023-09-08T01:41:42.380Z,88.80
2023-09-08T01:44:11.412Z,88.50
2023-09-08T01:46:39.653Z,88.50
2023-09-08T01:49:06.608Z,88.30
2023-09-08T01:51:33.542Z,88.80
2023-09-08T01:54:00.356Z,89.40
2023-09-08T01:56:27.302Z,89.70
2023-09-08T01:58:54.127Z,89.70
2023-09-08T02:01:21.021Z,89.30
2023-09-08T02:03:47.937Z,89.60
2023-09-08T02:06:14.762Z,90.00
2023-09-08T02:08:41.603Z,89.60
2023-09-08T02:11:08.428Z,89.30
2023-09-08T02:13:35.211Z,88.30
2023-09-08T02:16:02.197Z,88.80
2023-09-08T02:18:29.704Z,89.20
2023-09-08T02:20:56.561Z,89.40
2023-09-08T02:23:23.387Z,89.60
2023-09-08T02:25:50.171Z,89.60
2023-09-08T02:28:17.013Z,89.90
2023-09-08T02:30:43.821Z,89.90
2023-09-08T02:33:10.707Z,90.00
2023-09-08T02:35:41.708Z,90.10
2023-09-08T02:38:08.488Z,89.60
2023-09-08T02:40:35.594Z,89.00
2023-09-08T02:43:03.658Z,88.80
2023-09-08T02:45:32.140Z,89.30
2023-09-08T02:47:59.962Z,89.10
2023-09-08T02:50:26.820Z,89.30
2023-09-08T02:52:54.192Z,89.10
2023-09-08T02:55:21.172Z,89.50
2023-09-08T02:57:47.926Z,89.40
2023-09-08T03:00:15.099Z,88.60
2023-09-08T03:02:42.030Z,88.50
2023-09-08T03:05:09.143Z,88.90
2023-09-08T03:07:38.434Z,89.30
2023-09-08T03:10:06.274Z,89.70
2023-09-08T03:12:33.387Z,90.20
2023-09-08T03:15:01.767Z,90.40
2023-09-08T03:17:29.591Z,89.60
2023-09-08T03:19:56.681Z,90.20
2023-09-08T03:22:25.819Z,89.30
2023-09-08T03:24:53.400Z,89.70
2023-09-08T03:27:20.252Z,89.10
2023-09-08T03:29:47.007Z,89.60
2023-09-08T03:32:13.923Z,89.30
2023-09-08T03:34:41.101Z,90.00
2023-09-08T03:37:08.022Z,89.70
2023-09-08T03:39:34.797Z,90.00
2023-09-08T03:42:02.477Z,90.60
2023-09-08T03:44:29.624Z,90.70
2023-09-08T03:46:56.424Z,90.20
2023-09-08T03:49:23.263Z,89.60
2023-09-08T03:51:50.087Z,88.80
2023-09-08T03:54:16.866Z,89.50
2023-09-08T03:56:43.628Z,89.30
2023-09-08T03:59:10.388Z,89.60
2023-09-08T04:01:37.219Z,88.40
2023-09-08T04:04:04.311Z,87.80
2023-09-08T04:06:31.191Z,88.00
2023-09-08T04:08:57.988Z,88.80
2023-09-08T04:11:24.826Z,89.30
2023-09-08T04:13:51.576Z,89.40
2023-09-08T04:16:18.568Z,89.90
2023-09-08T04:18:45.953Z,90.50
2023-09-08T04:21:12.877Z,90.90
2023-09-08T04:23:40.220Z,91.60
2023-09-08T04:26:07.229Z,91.60
2023-09-08T04:28:33.997Z,91.30
2023-09-08T04:31:00.816Z,91.20
2023-09-08T04:33:27.707Z,90.50
2023-09-08T04:35:54.568Z,90.50
2023-09-08T04:38:21.352Z,90.60
2023-09-08T04:40:48.192Z,90.90
2023-09-08T04:43:15.123Z,90.10
2023-09-08T04:45:42.158Z,89.90
2023-09-08T04:48:09.055Z,90.10
2023-09-08T04:50:35.888Z,90.60
2023-09-08T04:53:02.679Z,91.00
2023-09-08T04:55:30.107Z,91.20
2023-09-08T04:57:56.875Z,91.20
2023-09-08T05:00:23.761Z,91.10
2023-09-08T05:02:50.606Z,91.00
2023-09-08T05:05:17.574Z,90.50
2023-09-08T05:07:44.392Z,90.20
2023-09-08T05:10:11.313Z,89.90
2023-09-08T05:12:38.261Z,89.70
2023-09-08T05:15:11.362Z,90.20
2023-09-08T05:17:38.269Z,90.60
2023-09-08T05:20:05.839Z,90.90
2023-09-08T05:22:33.254Z,91.60
2023-09-08T05:25:00.100Z,91.50
2023-09-08T05:27:26.941Z,91.80
2023-09-08T05:29:53.856Z,91.20
2023-09-08T05:32:20.805Z,90.50
2023-09-08T05:34:47.577Z,90.40
2023-09-08T05:37:14.364Z,90.50
2023-09-08T05:39:42.284Z,89.50
2023-09-08T05:42:09.214Z,90.10
2023-09-08T05:44:36.376Z,89.30
2023-09-08T05:47:03.913Z,89.50
2023-09-08T05:49:31.018Z,89.70
2023-09-08T05:51:57.856Z,89.70
2023-09-08T05:54:24.680Z,90.00
2023-09-08T05:56:51.523Z,90.00
2023-09-08T05:59:18.269Z,89.70
2023-09-08T06:01:45.105Z,90.00
2023-09-08T06:04:11.972Z,90.00
2023-09-08T06:06:38.791Z,90.30
2023-09-08T06:09:08.908Z,90.60
2023-09-08T06:11:35.742Z,89.90
2023-09-08T06:14:02.521Z,90.10
2023-09-08T06:16:29.417Z,89.90
2023-09-08T06:18:56.326Z,89.90
2023-09-08T06:21:23.200Z,89.90
2023-09-08T06:23:50.334Z,89.50
2023-09-08T06:26:17.334Z,89.60
2023-09-08T06:28:45.089Z,89.60
2023-09-08T06:31:12.051Z,89.70
2023-09-08T06:33:38.993Z,90.10
2023-09-08T06:36:06.283Z,90.40
2023-09-08T06:38:33.503Z,90.30
2023-09-08T06:41:01.834Z,90.20
2023-09-08T06:43:29.029Z,90.10
2023-09-08T06:45:55.882Z,90.00
2023-09-08T06:48:22.769Z,89.40
2023-09-08T06:50:49.659Z,89.60
2023-09-08T06:53:16.535Z,89.60
2023-09-08T06:55:45.602Z,89.20
2023-09-08T06:58:13.172Z,89.20
2023-09-08T07:00:40.599Z,89.00
2023-09-08T07:03:09.296Z,87.00
2023-09-08T07:05:36.716Z,86.40
2023-09-08T07:08:03.715Z,86.20
2023-09-08T07:10:30.632Z,86.00
2023-09-08T07:12:57.437Z,86.00
2023-09-08T07:15:24.257Z,85.80
2023-09-08T07:17:51.238Z,85.60
2023-09-08T07:20:19.019Z,85.20
2023-09-08T07:22:45.879Z,85.10
2023-09-08T07:25:12.759Z,84.60
2023-09-08T07:27:39.563Z,83.90
2023-09-08T07:30:07.349Z,83.40
2023-09-08T07:32:34.494Z,81.90
2023-09-08T07:35:01.414Z,81.70
2023-09-08T07:37:28.450Z,79.40
2023-09-08T07:39:56.183Z,79.60
2023-09-08T07:42:26.686Z,81.10
2023-09-08T07:44:53.512Z,80.50
2023-09-08T07:47:20.324Z,79.50
2023-09-08T07:49:48.987Z,79.20
2023-09-08T07:52:15.807Z,77.40
2023-09-08T07:54:42.593Z,76.80
2023-09-08T07:57:09.664Z,75.80
2023-09-08T07:59:38.022Z,76.20
2023-09-08T08:02:05.243Z,76.20
2023-09-08T08:04:32.197Z,75.90
2023-09-08T08:06:59.059Z,74.90
2023-09-08T08:09:25.971Z,75.40
2023-09-08T08:11:52.877Z,74.10
2023-09-08T08:14:19.887Z,73.80
2023-09-08T08:16:46.778Z,72.40
2023-09-08T08:19:13.599Z,72.60
2023-09-08T08:21:43.232Z,72.00
2023-09-08T08:24:10.237Z,72.40
2023-09-08T08:26:37.074Z,72.00
2023-09-08T08:29:04.547Z,73.30
2023-09-08T08:31:31.344Z,71.90
2023-09-08T08:33:58.165Z,73.10
2023-09-08T08:36:24.973Z,71.00
2023-09-08T08:38:51.757Z,69.30
2023-09-08T08:41:20.776Z,67.50
2023-09-08T08:43:49.570Z,69.10
2023-09-08T08:46:17.867Z,69.60
2023-09-08T08:48:46.730Z,68.30
2023-09-08T08:51:14.460Z,68.80
2023-09-08T08:53:41.853Z,68.10
2023-09-08T08:56:10.348Z,69.10
2023-09-08T08:58:40.059Z,67.00
2023-09-08T09:01:08.567Z,64.50
2023-09-08T09:03:38.982Z,64.70
2023-09-08T09:06:05.982Z,67.60
2023-09-08T09:08:33.532Z,67.30
2023-09-08T09:11:00.650Z,67.40
2023-09-08T09:13:27.559Z,67.20
2023-09-08T09:16:04.558Z,66.20
2023-09-08T09:18:32.449Z,63.60
2023-09-08T09:21:03.599Z,63.20
2023-09-08T09:23:32.604Z,64.20
2023-09-08T09:26:00.869Z,68.40
2023-09-08T09:28:29.992Z,65.40
2023-09-08T09:30:58.048Z,67.00
2023-09-08T09:33:24.993Z,63.60
2023-09-08T09:35:53.156Z,62.50
2023-09-08T09:38:21.637Z,65.10
2023-09-08T09:40:50.252Z,65.50
2023-09-08T09:43:18.568Z,64.90
2023-09-08T09:45:45.966Z,60.40
2023-09-08T09:48:21.536Z,59.50
2023-09-08T09:50:48.332Z,61.80
2023-09-08T09:53:16.861Z,62.30
2023-09-08T09:55:45.287Z,62.50
2023-09-08T09:58:13.105Z,62.90
2023-09-08T10:00:48.385Z,60.30
2023-09-08T10:03:15.768Z,61.80
2023-09-08T10:05:42.592Z,63.60
2023-09-08T10:08:09.524Z,61.80
2023-09-08T10:10:40.166Z,63.60
2023-09-08T10:13:08.391Z,61.10
2023-09-08T10:15:36.757Z,58.30
2023-09-08T10:18:06.689Z,57.30
2023-09-08T10:20:34.966Z,57.70
2023-09-08T10:23:23.360Z,58.90
2023-09-08T10:25:55.671Z,56.40
2023-09-08T10:28:23.741Z,59.80
2023-09-08T10:30:52.762Z,60.70
2023-09-08T10:33:24.257Z,58.10
2023-09-08T10:35:54.676Z,58.10
2023-09-08T10:38:30.225Z,59.30
2023-09-08T10:41:30.122Z,57.70
2023-09-08T10:44:01.552Z,56.10
2023-09-08T10:46:31.978Z,57.70
2023-09-08T10:49:08.824Z,57.90
2023-09-08T10:51:36.477Z,57.60
2023-09-08T10:54:04.513Z,55.30
2023-09-08T10:56:52.322Z,53.90
2023-09-08T10:59:19.857Z,55.10
2023-09-08T11:01:48.843Z,54.80
2023-09-08T11:04:20.233Z,52.80
2023-09-08T11:06:47.280Z,53.20
2023-09-08T11:09:14.156Z,52.80
2023-09-08T11:11:41.023Z,52.60
2023-09-08T11:14:08.195Z,52.80
2023-09-08T11:16:36.430Z,52.40
2023-09-08T11:19:05.777Z,49.50
2023-09-08T11:21:36.245Z,49.10
2023-09-08T11:24:05.554Z,50.20
2023-09-08T11:26:36.214Z,49.40
2023-09-08T11:29:04.366Z,48.90
2023-09-08T11:31:31.282Z,49.40
2023-09-08T11:34:00.598Z,48.50
2023-09-08T11:36:27.448Z,48.00
2023-09-08T11:38:54.253Z,48.00
2023-09-08T11:41:24.598Z,48.90
2023-09-08T11:43:53.152Z,47.70
2023-09-08T11:46:20.605Z,46.70
2023-09-08T11:48:47.905Z,46.40
2023-09-08T11:51:14.685Z,47.30
2023-09-08T11:53:43.614Z,46.40
2023-09-08T11:56:10.609Z,45.60
2023-09-08T11:58:38.298Z,42.10
2023-09-08T12:01:05.992Z,43.10
2023-09-08T12:03:32.986Z,42.20
2023-09-08T12:06:03.012Z,43.90
2023-09-08T12:08:30.358Z,42.60
2023-09-08T12:10:57.213Z,42.20
2023-09-08T12:13:32.986Z,39.90
2023-09-08T12:16:00.371Z,44.00
2023-09-08T12:18:41.831Z,45.40
2023-09-08T12:21:09.118Z,41.60
2023-09-08T12:23:47.414Z,42.40
2023-09-08T12:26:14.988Z,40.00
2023-09-08T12:28:44.741Z,37.80
2023-09-08T12:31:13.543Z,38.80
2023-09-08T12:33:46.153Z,39.70
2023-09-08T12:36:20.341Z,40.50
2023-09-08T12:38:53.411Z,35.30
2023-09-08T12:41:21.404Z,34.30
2023-09-08T12:43:48.360Z,34.20
2023-09-08T12:46:19.232Z,32.30
2023-09-08T12:48:47.048Z,30.50
2023-09-08T12:51:17.043Z,30.90
2023-09-08T12:53:43.875Z,30.00
2023-09-08T12:56:10.743Z,29.20
2023-09-08T12:58:37.786Z,27.50
2023-09-08T13:01:07.714Z,29.40
2023-09-08T13:03:34.616Z,27.70
2023-09-08T13:06:01.509Z,29.40
2023-09-08T13:08:28.370Z,28.90
2023-09-08T13:10:55.295Z,27.20
2023-09-08T13:13:22.055Z,24.70
2023-09-08T13:15:50.717Z,27.50
2023-09-08T13:18:17.545Z,28.50
2023-09-08T13:20:44.393Z,29.20
2023-09-08T13:23:11.197Z,28.70
2023-09-08T13:25:37.976Z,26.80
2023-09-08T13:28:05.039Z,25.70
2023-09-08T13:30:31.807Z,27.30
2023-09-08T13:32:58.596Z,27.90
2023-09-08T13:35:25.455Z,28.70
2023-09-08T13:37:52.315Z,27.00
2023-09-08T13:40:19.241Z,25.60
2023-09-08T13:42:46.053Z,25.90
2023-09-08T13:45:13.030Z,24.90
2023-09-08T13:47:40.379Z,24.60
2023-09-08T13:50:10.015Z,25.20
2023-09-08T13:52:38.502Z,26.30
2023-09-08T13:57:40.493Z,26.90
2023-09-08T14:00:15.709Z,26.80
2023-09-08T14:02:44.566Z,25.80
2023-09-08T14:05:18.664Z,27.70
2023-09-08T14:07:55.295Z,25.00
2023-09-08T14:12:54.208Z,25.60
2023-09-08T14:15:21.140Z,26.80
2023-09-08T14:17:48.009Z,27.20
2023-09-08T14:20:14.939Z,25.50
2023-09-08T14:22:41.845Z,25.90
2023-09-08T14:25:09.371Z,25.80
2023-09-08T14:27:37.720Z,25.20
2023-09-08T14:30:06.483Z,26.40
2023-09-08T14:32:33.875Z,25.10
2023-09-08T14:35:00.617Z,25.40
2023-09-08T14:37:27.366Z,25.40
2023-09-08T14:39:54.101Z,25.00
2023-09-08T14:42:20.894Z,26.30
2023-09-08T14:44:47.671Z,24.70
2023-09-08T14:47:14.455Z,24.40
2023-09-08T14:49:41.222Z,25.00
2023-09-08T14:52:07.980Z,24.90
2023-09-08T14:54:34.834Z,25.90
2023-09-08T14:57:01.680Z,24.90
2023-09-08T14:59:28.945Z,27.40
2023-09-08T15:01:55.987Z,24.60
2023-09-08T15:04:23.258Z,25.90
2023-09-08T15:06:50.313Z,27.00
2023-09-08T15:09:17.107Z,27.00
2023-09-08T15:11:44.312Z,25.70
2023-09-08T15:14:11.166Z,26.00
2023-09-08T15:16:38.638Z,26.70
2023-09-08T15:19:05.526Z,27.90
2023-09-08T15:21:34.207Z,27.40
2023-09-08T15:24:01.245Z,27.40
2023-09-08T15:26:28.340Z,26.40
2023-09-08T15:28:55.686Z,27.70
2023-09-08T15:31:22.668Z,27.60
2023-09-08T15:33:49.629Z,27.60
2023-09-08T15:36:16.537Z,29.00
2023-09-08T15:38:43.385Z,28.80
2023-09-08T15:41:13.683Z,28.10
2023-09-08T15:43:41.870Z,27.60
2023-09-08T15:46:09.653Z,30.10
2023-09-08T15:48:40.356Z,29.60
2023-09-08T15:51:09.373Z,30.90
2023-09-08T15:53:36.803Z,30.10
2023-09-08T15:56:04.467Z,30.50
2023-09-08T15:58:31.324Z,29.60
2023-09-08T16:00:58.127Z,31.30
2023-09-08T16:03:25.118Z,28.90
2023-09-08T16:05:51.970Z,28.40
2023-09-08T16:08:18.859Z,29.30
2023-09-08T16:10:47.187Z,30.90
2023-09-08T16:13:13.957Z,30.80
2023-09-08T16:15:40.747Z,29.30
2023-09-08T16:18:10.737Z,30.90
2023-09-08T16:20:39.218Z,30.30
2023-09-08T16:23:06.224Z,31.00
2023-09-08T16:25:33.263Z,30.20
2023-09-08T16:28:00.567Z,31.60
2023-09-08T16:30:28.026Z,31.70
2023-09-08T16:32:54.847Z,32.80
2023-09-08T16:35:21.753Z,32.50
2023-09-08T16:37:48.518Z,33.40
2023-09-08T16:40:15.533Z,34.50
2023-09-08T16:42:42.459Z,36.30
2023-09-08T16:45:09.744Z,37.30
2023-09-08T16:47:37.164Z,38.20
2023-09-08T16:50:05.923Z,41.30
2023-09-08T16:52:32.934Z,43.30
2023-09-08T16:54:59.839Z,43.30
2023-09-08T16:57:26.691Z,44.00
2023-09-08T16:59:53.711Z,43.90
2023-09-08T17:02:20.740Z,45.60
2023-09-08T17:04:47.642Z,45.80
2023-09-08T17:07:15.892Z,47.30
2023-09-08T17:09:43.043Z,50.50
2023-09-08T17:12:10.786Z,51.90
2023-09-08T17:14:37.750Z,53.30
2023-09-08T17:17:04.772Z,54.60
2023-09-08T17:19:31.616Z,55.80
2023-09-08T17:21:59.269Z,56.30
2023-09-08T17:24:27.168Z,57.10
2023-09-08T17:26:55.226Z,57.00
2023-09-08T17:29:22.339Z,60.90
2023-09-08T17:31:49.286Z,62.30
2023-09-08T17:34:21.091Z,64.50
2023-09-08T17:36:48.789Z,64.80
2023-09-08T17:39:15.826Z,65.10
2023-09-08T17:41:43.020Z,66.10
2023-09-08T17:44:09.940Z,66.20
2023-09-08T17:46:36.996Z,66.90
2023-09-08T17:49:03.972Z,67.80
2023-09-08T17:51:30.968Z,69.10
2023-09-08T17:53:57.734Z,69.90
2023-09-08T17:56:24.521Z,71.10
2023-09-08T17:58:51.473Z,71.80
2023-09-08T18:01:18.332Z,71.60
2023-09-08T18:03:48.529Z,71.60
2023-09-08T18:06:15.738Z,72.60
2023-09-08T18:08:42.545Z,73.20
2023-09-08T18:11:09.522Z,73.30
2023-09-08T18:13:36.823Z,73.40
2023-09-08T18:16:04.602Z,73.60
2023-09-08T18:18:33.632Z,73.90
2023-09-08T18:21:00.460Z,74.60
2023-09-08T18:23:27.424Z,74.20
2023-09-08T18:25:55.742Z,74.70
2023-09-08T18:28:23.286Z,76.00
2023-09-08T18:30:51.904Z,75.70
2023-09-08T18:33:18.942Z,75.80
2023-09-08T18:35:46.858Z,76.60
2023-09-08T18:38:13.754Z,74.70
2023-09-08T18:40:53.119Z,74.40
2023-09-08T18:43:20.288Z,76.50
2023-09-08T18:45:47.958Z,77.00
2023-09-08T18:48:14.912Z,76.50
2023-09-08T18:50:44.787Z,77.10
2023-09-08T18:53:12.169Z,76.80
2023-09-08T18:55:39.220Z,78.00
2023-09-08T18:58:06.548Z,78.20
2023-09-08T19:00:37.217Z,78.80
2023-09-08T19:03:04.368Z,79.00
2023-09-08T19:05:34.308Z,78.10
2023-09-08T19:08:02.114Z,80.00
2023-09-08T19:10:35.059Z,81.00
2023-09-08T19:13:05.969Z,81.30
2023-09-08T19:15:38.049Z,81.70
2023-09-08T19:18:07.082Z,82.00
2023-09-08T19:20:34.068Z,82.80
2023-09-08T19:23:02.632Z,83.20
2023-09-08T19:25:29.762Z,83.50
2023-09-08T19:27:57.485Z,83.00
2023-09-08T19:30:24.339Z,83.00
2023-09-08T19:32:51.269Z,82.80
2023-09-08T19:35:18.325Z,82.80
2023-09-08T19:37:45.900Z,82.70
2023-09-08T19:40:12.942Z,83.60
2023-09-08T19:42:42.820Z,83.00
2023-09-08T19:45:10.413Z,81.90
2023-09-08T19:47:38.145Z,83.40
2023-09-08T19:50:05.904Z,84.20
2023-09-08T19:52:32.826Z,83.60
2023-09-08T19:54:59.564Z,83.80
2023-09-08T19:57:26.283Z,83.80
2023-09-08T19:59:53.019Z,83.60
2023-09-08T20:02:19.869Z,83.50
2023-09-08T20:04:46.937Z,83.80
2023-09-08T20:07:13.778Z,84.30
2023-09-08T20:09:40.508Z,83.90
2023-09-08T20:12:07.474Z,84.20
2023-09-08T20:14:34.199Z,83.50
2023-09-08T20:17:00.971Z,83.50
2023-09-08T20:19:27.765Z,84.30
2023-09-08T20:21:54.759Z,85.00
2023-09-08T20:24:21.631Z,85.10
2023-09-08T20:26:48.554Z,85.20
2023-09-08T20:29:15.914Z,85.60
2023-09-08T20:31:42.767Z,85.30
2023-09-08T20:34:15.378Z,85.40
2023-09-08T20:36:42.124Z,85.30
2023-09-08T20:39:09.562Z,85.50
2023-09-08T20:41:36.535Z,84.90
2023-09-08T20:44:03.511Z,84.30
2023-09-08T20:46:30.332Z,83.80
2023-09-08T20:48:57.388Z,84.90
2023-09-08T20:51:24.155Z,85.40
2023-09-08T20:53:50.991Z,86.70
2023-09-08T20:56:17.748Z,86.80
2023-09-08T20:58:44.881Z,86.80
2023-09-08T21:01:12.079Z,87.20
2023-09-08T21:03:39.872Z,87.00
2023-09-08T21:06:07.307Z,86.90
2023-09-08T21:08:34.228Z,86.30
2023-09-08T21:11:01.094Z,86.90
2023-09-08T21:13:28.218Z,86.80
2023-09-08T21:15:55.237Z,86.80
2023-09-08T21:18:22.230Z,87.20
2023-09-08T21:20:49.546Z,86.60
2023-09-08T21:23:17.118Z,86.40
2023-09-08T21:25:43.914Z,86.50
2023-09-08T21:28:10.857Z,86.40
2023-09-08T21:30:37.674Z,85.00
2023-09-08T21:33:04.825Z,84.90
2023-09-08T21:35:32.107Z,86.70
2023-09-08T21:37:59.054Z,87.50
2023-09-08T21:40:26.003Z,88.00
2023-09-08T21:42:52.954Z,88.50
2023-09-08T21:45:19.871Z,88.10
2023-09-08T21:47:51.143Z,87.60
2023-09-08T21:50:18.729Z,88.20
2023-09-08T21:52:45.836Z,88.10
2023-09-08T21:55:12.748Z,88.00
2023-09-08T21:57:39.513Z,88.20
2023-09-08T22:00:07.150Z,88.30
2023-09-08T22:02:34.993Z,87.90
2023-09-08T22:05:02.147Z,88.20
2023-09-08T22:07:30.874Z,88.20
2023-09-08T22:09:57.654Z,87.10
2023-09-08T22:12:24.449Z,87.60
2023-09-08T22:14:51.212Z,87.50
2023-09-08T22:17:18.034Z,88.20
2023-09-08T22:19:45.565Z,88.70
2023-09-08T22:22:12.630Z,88.90
2023-09-08T22:24:39.458Z,88.70
2023-09-08T22:27:07.122Z,88.90
2023-09-08T22:29:33.907Z,89.30
2023-09-08T22:32:00.788Z,90.10
2023-09-08T22:34:27.704Z,90.00
2023-09-08T22:36:54.656Z,88.70
2023-09-08T22:39:21.606Z,88.70
2023-09-08T22:41:48.607Z,88.70
2023-09-08T22:44:15.432Z,89.00
2023-09-08T22:46:42.275Z,89.00
2023-09-08T22:49:09.430Z,89.00
2023-09-08T22:51:36.294Z,87.80
2023-09-08T22:54:04.006Z,87.90
2023-09-08T22:56:31.235Z,87.80
2023-09-08T22:58:58.360Z,87.70
2023-09-08T23:01:25.906Z,87.90
2023-09-08T23:03:52.945Z,88.60
2023-09-08T23:06:19.911Z,88.70
2023-09-08T23:08:46.892Z,89.00
2023-09-08T23:11:13.859Z,89.50
2023-09-08T23:13:41.228Z,89.30
2023-09-08T23:16:13.013Z,89.20
2023-09-08T23:18:39.996Z,89.30
2023-09-08T23:21:06.859Z,89.40
2023-09-08T23:23:34.752Z,89.70
2023-09-08T23:26:03.856Z,90.10
2023-09-08T23:28:30.626Z,90.60
2023-09-08T23:30:57.495Z,90.20
2023-09-08T23:33:24.343Z,90.30
2023-09-08T23:35:51.202Z,90.40
2023-09-08T23:38:17.982Z,90.40
2023-09-08T23:40:44.809Z,89.80
2023-09-08T23:43:12.229Z,89.90
2023-09-08T23:45:45.165Z,89.70
2023-09-08T23:48:12.427Z,89.80
2023-09-08T23:50:49.782Z,89.30
2023-09-08T23:53:16.770Z,89.20
2023-09-08T23:55:43.584Z,88.40
2023-09-08T23:58:10.358Z,88.50
